Time;durP1;ratioP1;P1;durP2;ratioP2;P2;SDS_P1;SDS_P2;PMS_P1;PMS_P2;Temp;Humidity;BMP_temperature;BMP_pressure;BME280_temperature;BME280_humidity;BME280_pressure;Samples;Min_cycle;Max_cycle;Signal;HPM_P1;HPM_P2
2024/01/31 00:00:51;;;;;;;2.13;1.20;;;;;;;;;;5103537;28;20205;-67
2024/01/31 00:03:18;;;;;;;2.17;1.10;;;;;;;;;;5101299;28;20258;-67
2024/01/31 00:05:45;;;;;;;4.10;1.20;;;;;;;;;;5107480;28;20264;-67
2024/01/31 00:08:12;;;;;;;2.70;1.40;;;;;;;;;;5110113;28;20203;-66
2024/01/31 00:10:39;;;;;;;6.37;1.50;;;;;;;;;;5106158;28;20201;-67
2024/01/31 00:13:08;;;;;;;3.13;1.27;;;;;;;;;;5102346;28;20202;-67
2024/01/31 00:15:35;;;;;;;2.43;1.30;;;;;;;;;;5103682;28;20290;-67
2024/01/31 00:18:02;;;;;;;3.10;1.43;;;;;;;;;;5108421;28;20236;-67
2024/01/31 00:20:30;;;;;;;1.90;0.90;;;;;;;;;;5105283;28;20214;-67
2024/01/31 00:22:57;;;;;;;2.17;1.37;;;;;;;;;;5107805;28;20204;-66
2024/01/31 00:25:24;;;;;;;1.67;1.10;;;;;;;;;;5106057;28;20190;-67
2024/01/31 00:27:51;;;;;;;2.33;1.40;;;;;;;;;;5107918;28;20284;-67
2024/01/31 00:30:20;;;;;;;1.50;1.20;;;;;;;;;;5105610;28;20200;-66
2024/01/31 00:32:47;;;;;;;3.33;1.33;;;;;;;;;;5106435;28;20241;-67
2024/01/31 00:35:14;;;;;;;2.60;1.23;;;;;;;;;;5108549;28;20281;-67
2024/01/31 00:37:41;;;;;;;2.73;1.30;;;;;;;;;;5104021;28;20201;-67
2024/01/31 00:40:09;;;;;;;2.70;1.30;;;;;;;;;;5100173;28;20273;-66
2024/01/31 00:42:37;;;;;;;2.10;1.00;;;;;;;;;;5104210;28;20212;-67
2024/01/31 00:45:05;;;;;;;2.17;1.03;;;;;;;;;;5106002;28;20210;-66
2024/01/31 00:47:34;;;;;;;2.23;1.17;;;;;;;;;;5103761;28;20198;-67
2024/01/31 00:50:01;;;;;;;1.60;1.10;;;;;;;;;;5107202;28;20223;-67
2024/01/31 00:52:28;;;;;;;2.93;1.50;;;;;;;;;;5105593;28;20320;-67
2024/01/31 00:54:55;;;;;;;1.13;1.00;;;;;;;;;;5107659;28;20224;-67
2024/01/31 00:57:22;;;;;;;4.57;1.40;;;;;;;;;;5102909;28;20288;-68
2024/01/31 00:59:50;;;;;;;2.47;1.40;;;;;;;;;;5107339;27;20221;-66
2024/01/31 01:02:17;;;;;;;3.80;1.17;;;;;;;;;;5104178;28;20201;-67
2024/01/31 01:04:45;;;;;;;2.00;1.13;;;;;;;;;;5106930;28;20213;-66
2024/01/31 01:07:12;;;;;;;2.10;1.20;;;;;;;;;;5102115;28;20293;-66
2024/01/31 01:09:40;;;;;;;1.40;1.30;;;;;;;;;;5102003;28;20193;-67
2024/01/31 01:12:07;;;;;;;3.50;1.37;;;;;;;;;;5103790;28;20202;-65
2024/01/31 01:14:34;;;;;;;2.67;1.10;;;;;;;;;;5103824;28;20202;-66
2024/01/31 01:17:02;;;;;;;2.70;1.10;;;;;;;;;;5101844;28;20226;-67
2024/01/31 01:19:29;;;;;;;1.33;1.00;;;;;;;;;;5104557;28;20205;-67
2024/01/31 01:21:57;;;;;;;1.03;0.90;;;;;;;;;;5103885;28;20197;-67
2024/01/31 01:24:25;;;;;;;3.20;1.30;;;;;;;;;;5104463;28;20197;-67
2024/01/31 01:26:52;;;;;;;2.10;1.00;;;;;;;;;;5102992;28;20208;-67
2024/01/31 01:29:19;;;;;;;2.20;1.00;;;;;;;;;;5102609;28;20214;-67
2024/01/31 01:31:46;;;;;;;2.93;1.20;;;;;;;;;;5105117;28;20292;-67
2024/01/31 01:34:13;;;;;;;1.80;1.23;;;;;;;;;;5104676;28;20289;-67
2024/01/31 01:36:39;;;;;;;0.87;0.87;;;;;;;;;;5105565;28;20201;-66
2024/01/31 01:39:08;;;;;;;1.63;1.00;;;;;;;;;;5102525;28;20221;-67
2024/01/31 01:41:35;;;;;;;1.83;1.30;;;;;;;;;;5105413;28;20197;-67
2024/01/31 01:44:02;;;;;;;2.27;0.90;;;;;;;;;;5108659;28;20290;-69
2024/01/31 01:46:33;;;;;;;2.30;1.10;;;;;;;;;;5099294;28;20202;-67
2024/01/31 01:49:00;;;;;;;3.23;1.10;;;;;;;;;;5101516;28;20217;-67
2024/01/31 01:51:27;;;;;;;2.10;1.13;;;;;;;;;;5103366;28;20321;-67
2024/01/31 01:53:55;;;;;;;2.00;1.20;;;;;;;;;;5105596;28;20288;-61
2024/01/31 01:56:24;;;;;;;1.07;0.90;;;;;;;;;;5107682;28;20211;-62
2024/01/31 01:58:52;;;;;;;2.60;1.00;;;;;;;;;;5105757;28;20198;-61
2024/01/31 02:01:20;;;;;;;2.23;1.20;;;;;;;;;;5104707;28;20203;-61
2024/01/31 02:03:49;;;;;;;2.90;1.00;;;;;;;;;;5101525;28;20280;-61
2024/01/31 02:06:16;;;;;;;4.43;1.03;;;;;;;;;;5109268;28;20194;-62
2024/01/31 02:08:43;;;;;;;2.07;1.10;;;;;;;;;;5105153;28;20240;-62
2024/01/31 02:11:11;;;;;;;4.43;1.40;;;;;;;;;;5104493;28;20185;-62
2024/01/31 02:13:39;;;;;;;2.17;1.30;;;;;;;;;;5101904;28;20262;-61
2024/01/31 02:16:06;;;;;;;2.57;1.00;;;;;;;;;;5100326;28;20296;-62
2024/01/31 02:18:34;;;;;;;2.23;1.00;;;;;;;;;;5103855;28;20292;-61
2024/01/31 02:21:01;;;;;;;2.13;0.90;;;;;;;;;;5100449;28;20237;-61
2024/01/31 02:23:29;;;;;;;1.97;1.00;;;;;;;;;;5100717;28;20277;-62
2024/01/31 02:25:56;;;;;;;3.43;1.10;;;;;;;;;;5108382;28;20216;-61
2024/01/31 02:28:24;;;;;;;1.00;0.90;;;;;;;;;;5106215;28;20190;-61
2024/01/31 02:30:51;;;;;;;2.60;1.10;;;;;;;;;;5101006;28;20215;-62
2024/01/31 02:33:18;;;;;;;1.60;1.07;;;;;;;;;;5106910;28;20273;-62
2024/01/31 02:35:45;;;;;;;3.37;1.00;;;;;;;;;;5097018;28;20198;-62
2024/01/31 02:38:12;;;;;;;2.60;1.07;;;;;;;;;;5100697;28;20194;-61
2024/01/31 02:40:41;;;;;;;2.10;1.10;;;;;;;;;;5103384;28;20309;-62
2024/01/31 02:43:08;;;;;;;2.70;1.20;;;;;;;;;;5101221;28;20297;-62
2024/01/31 02:45:36;;;;;;;3.33;1.17;;;;;;;;;;5102499;28;20209;-61
2024/01/31 02:48:03;;;;;;;2.67;1.30;;;;;;;;;;5102428;28;20200;-62
2024/01/31 02:50:31;;;;;;;1.20;1.10;;;;;;;;;;5102788;28;20197;-62
2024/01/31 02:52:57;;;;;;;1.20;0.93;;;;;;;;;;5104150;28;20190;-63
2024/01/31 02:55:24;;;;;;;2.63;1.10;;;;;;;;;;5101947;28;20216;-61
2024/01/31 02:57:53;;;;;;;1.80;1.10;;;;;;;;;;5103145;28;20201;-63
2024/01/31 03:00:20;;;;;;;2.00;1.20;;;;;;;;;;5101033;28;20239;-62
2024/01/31 03:02:47;;;;;;;2.87;1.13;;;;;;;;;;5102686;28;20288;-67
2024/01/31 03:05:14;;;;;;;2.80;1.13;;;;;;;;;;5102303;28;20190;-66
2024/01/31 03:07:41;;;;;;;1.67;1.20;;;;;;;;;;5101862;28;20208;-66
2024/01/31 03:10:09;;;;;;;2.40;1.10;;;;;;;;;;5101216;28;20228;-66
2024/01/31 03:12:36;;;;;;;2.47;0.90;;;;;;;;;;5105554;28;20232;-67
2024/01/31 03:15:05;;;;;;;1.60;0.97;;;;;;;;;;5104081;28;20276;-67
2024/01/31 03:17:35;;;;;;;2.17;1.00;;;;;;;;;;5104620;28;20242;-67
2024/01/31 03:20:03;;;;;;;2.17;1.10;;;;;;;;;;5100436;28;20205;-67
2024/01/31 03:22:30;;;;;;;2.30;1.00;;;;;;;;;;5102998;28;20194;-66
2024/01/31 03:24:57;;;;;;;1.60;0.97;;;;;;;;;;5105476;28;20216;-67
2024/01/31 03:27:24;;;;;;;2.10;1.00;;;;;;;;;;5101143;28;20224;-67
2024/01/31 03:29:52;;;;;;;2.07;1.07;;;;;;;;;;5099325;28;20281;-67
2024/01/31 03:32:20;;;;;;;2.60;1.00;;;;;;;;;;5101501;28;20299;-66
2024/01/31 03:34:47;;;;;;;1.80;1.20;;;;;;;;;;5102953;28;20205;-67
2024/01/31 03:37:14;;;;;;;1.63;1.20;;;;;;;;;;5098225;28;20202;-68
2024/01/31 03:39:42;;;;;;;2.03;1.17;;;;;;;;;;5101778;28;20309;-66
2024/01/31 03:42:09;;;;;;;3.57;1.33;;;;;;;;;;5100298;28;20197;-65
2024/01/31 03:44:36;;;;;;;1.23;1.10;;;;;;;;;;5102424;28;20212;-66
2024/01/31 03:47:03;;;;;;;1.53;1.00;;;;;;;;;;5104071;28;20206;-67
2024/01/31 03:49:32;;;;;;;1.87;1.10;;;;;;;;;;5103363;28;20208;-67
2024/01/31 03:51:59;;;;;;;2.20;1.17;;;;;;;;;;5104576;28;20201;-67
2024/01/31 03:54:26;;;;;;;1.30;1.20;;;;;;;;;;5103337;28;20673;-66
2024/01/31 03:56:53;;;;;;;1.80;1.00;;;;;;;;;;5104337;28;20228;-67
2024/01/31 03:59:21;;;;;;;3.07;1.00;;;;;;;;;;5103500;28;20258;-67
2024/01/31 04:01:50;;;;;;;2.43;1.20;;;;;;;;;;5101718;28;20348;-67
2024/01/31 04:04:17;;;;;;;1.00;0.90;;;;;;;;;;5105460;28;20201;-67
2024/01/31 04:06:46;;;;;;;1.57;1.10;;;;;;;;;;5098346;28;20302;-67
2024/01/31 04:09:13;;;;;;;1.60;1.10;;;;;;;;;;5100089;28;20193;-67
2024/01/31 04:11:40;;;;;;;2.53;1.30;;;;;;;;;;5099749;28;20202;-67
2024/01/31 04:14:08;;;;;;;2.27;1.10;;;;;;;;;;5100551;28;20280;-67
2024/01/31 04:16:35;;;;;;;2.17;1.20;;;;;;;;;;5103532;28;20229;-67
2024/01/31 04:19:02;;;;;;;2.80;1.20;;;;;;;;;;5101650;28;20284;-67
2024/01/31 04:21:29;;;;;;;3.07;1.20;;;;;;;;;;5100737;28;20201;-67
2024/01/31 04:23:58;;;;;;;1.63;1.37;;;;;;;;;;5103472;28;20208;-66
2024/01/31 04:26:25;;;;;;;4.53;1.20;;;;;;;;;;5103160;28;20200;-67
2024/01/31 04:28:52;;;;;;;1.00;0.93;;;;;;;;;;5106260;28;20223;-67
2024/01/31 04:31:19;;;;;;;1.93;1.00;;;;;;;;;;5105973;28;20208;-67
2024/01/31 04:33:46;;;;;;;3.83;1.23;;;;;;;;;;5109026;28;20201;-65
2024/01/31 04:36:14;;;;;;;1.33;1.20;;;;;;;;;;5105439;28;20203;-68
2024/01/31 04:38:41;;;;;;;2.13;1.20;;;;;;;;;;5108542;28;20293;-67
2024/01/31 04:41:08;;;;;;;1.30;0.97;;;;;;;;;;5106904;28;20216;-67
2024/01/31 04:43:36;;;;;;;2.03;1.00;;;;;;;;;;5106540;28;20193;-67
2024/01/31 04:46:03;;;;;;;4.67;1.40;;;;;;;;;;5103214;28;20202;-67
2024/01/31 04:48:30;;;;;;;1.10;1.00;;;;;;;;;;5108342;28;20197;-67
2024/01/31 04:50:57;;;;;;;0.97;0.87;;;;;;;;;;5100776;28;20201;-67
2024/01/31 04:53:24;;;;;;;1.27;0.87;;;;;;;;;;5105103;28;20197;-67
2024/01/31 04:55:52;;;;;;;1.10;1.00;;;;;;;;;;5104727;28;20201;-67
2024/01/31 04:58:20;;;;;;;2.20;1.27;;;;;;;;;;5108242;28;20292;-67
2024/01/31 05:00:47;;;;;;;2.67;1.20;;;;;;;;;;5107953;28;20221;-67
2024/01/31 05:03:14;;;;;;;4.17;1.30;;;;;;;;;;5105130;27;20197;-67
2024/01/31 05:05:42;;;;;;;2.17;1.00;;;;;;;;;;5102993;28;20207;-67
2024/01/31 05:08:09;;;;;;;1.87;1.30;;;;;;;;;;5102294;28;20289;-67
2024/01/31 05:10:36;;;;;;;3.67;1.30;;;;;;;;;;5099741;28;20200;-67
2024/01/31 05:13:03;;;;;;;1.53;1.10;;;;;;;;;;5100588;28;20393;-66
2024/01/31 05:15:32;;;;;;;2.43;1.13;;;;;;;;;;5099169;28;20198;-67
2024/01/31 05:18:00;;;;;;;1.70;1.10;;;;;;;;;;5097563;28;20229;-67
2024/01/31 05:20:29;;;;;;;1.93;1.20;;;;;;;;;;5096337;28;20241;-67
2024/01/31 05:22:56;;;;;;;2.27;1.53;;;;;;;;;;5104232;28;20260;-62
2024/01/31 05:25:23;;;;;;;1.67;1.40;;;;;;;;;;5099603;28;20224;-62
2024/01/31 05:27:50;;;;;;;2.13;1.40;;;;;;;;;;5106184;28;20220;-62
2024/01/31 05:30:18;;;;;;;2.13;1.40;;;;;;;;;;5105491;28;20200;-61
2024/01/31 05:32:46;;;;;;;1.40;1.30;;;;;;;;;;5105580;27;20205;-63
2024/01/31 05:35:13;;;;;;;2.43;1.30;;;;;;;;;;5105189;28;20196;-63
2024/01/31 05:37:41;;;;;;;1.63;1.40;;;;;;;;;;5106540;28;20197;-62
2024/01/31 05:40:09;;;;;;;2.20;1.57;;;;;;;;;;5104610;28;20213;-62
2024/01/31 05:42:36;;;;;;;2.90;1.53;;;;;;;;;;5101831;28;20200;-61
2024/01/31 05:45:03;;;;;;;2.50;1.50;;;;;;;;;;5108896;28;20200;-63
2024/01/31 05:47:30;;;;;;;1.87;1.30;;;;;;;;;;5105615;28;20292;-62
2024/01/31 05:49:59;;;;;;;3.47;1.77;;;;;;;;;;5106033;28;20284;-63
2024/01/31 05:52:26;;;;;;;4.73;1.70;;;;;;;;;;5108330;28;20209;-61
2024/01/31 05:54:53;;;;;;;2.13;1.57;;;;;;;;;;5068921;28;20227;-62
2024/01/31 05:57:20;;;;;;;2.90;1.73;;;;;;;;;;5059684;28;20290;-62
2024/01/31 05:59:48;;;;;;;2.10;1.90;;;;;;;;;;5062588;28;20208;-62
2024/01/31 06:02:15;;;;;;;2.63;1.80;;;;;;;;;;5061756;28;20210;-62
2024/01/31 06:04:43;;;;;;;2.27;1.63;;;;;;;;;;5065441;28;20203;-61
2024/01/31 06:07:13;;;;;;;2.40;1.60;;;;;;;;;;5061290;28;20199;-62
2024/01/31 06:09:46;;;;;;;1.83;1.53;;;;;;;;;;5062875;28;20200;-61
2024/01/31 06:12:13;;;;;;;1.97;1.47;;;;;;;;;;5057743;28;20194;-62
2024/01/31 06:14:40;;;;;;;1.47;1.37;;;;;;;;;;5062613;28;20337;-61
2024/01/31 06:17:09;;;;;;;2.00;1.70;;;;;;;;;;5059781;28;20228;-62
2024/01/31 06:19:38;;;;;;;3.53;1.80;;;;;;;;;;5058792;28;20201;-62
2024/01/31 06:22:05;;;;;;;2.30;1.70;;;;;;;;;;5061534;28;20211;-62
2024/01/31 06:24:35;;;;;;;3.20;1.60;;;;;;;;;;5059598;28;20219;-61
2024/01/31 06:27:02;;;;;;;2.70;1.70;;;;;;;;;;5058445;28;20199;-64
2024/01/31 06:29:33;;;;;;;3.60;1.70;;;;;;;;;;5065281;28;20207;-61
2024/01/31 06:32:00;;;;;;;2.67;1.53;;;;;;;;;;5065491;28;20202;-62
2024/01/31 06:34:27;;;;;;;2.27;1.80;;;;;;;;;;5063108;28;20207;-62
2024/01/31 06:36:55;;;;;;;3.13;1.80;;;;;;;;;;5058059;28;20203;-63
2024/01/31 06:39:22;;;;;;;2.30;2.10;;;;;;;;;;5059861;28;20230;-62
2024/01/31 06:41:51;;;;;;;1.93;1.83;;;;;;;;;;5064469;28;20294;-62
2024/01/31 06:44:18;;;;;;;1.83;1.70;;;;;;;;;;5059575;28;20244;-62
2024/01/31 06:46:48;;;;;;;2.33;1.83;;;;;;;;;;5056823;28;20210;-62
2024/01/31 06:49:16;;;;;;;4.00;1.80;;;;;;;;;;5064554;28;20202;-63
2024/01/31 06:51:43;;;;;;;3.50;2.10;;;;;;;;;;5063871;28;20289;-63
2024/01/31 06:54:12;;;;;;;2.37;2.00;;;;;;;;;;5059094;28;20295;-63
2024/01/31 06:56:39;;;;;;;5.43;2.90;;;;;;;;;;5055020;28;20199;-62
2024/01/31 06:59:07;;;;;;;3.93;2.53;;;;;;;;;;5050963;28;20205;-62
2024/01/31 07:01:35;;;;;;;2.87;2.53;;;;;;;;;;5061782;28;20295;-62
2024/01/31 07:04:02;;;;;;;4.20;2.47;;;;;;;;;;5062481;28;20228;-62
2024/01/31 07:06:29;;;;;;;3.17;2.87;;;;;;;;;;5062694;28;20202;-61
2024/01/31 07:08:57;;;;;;;2.93;2.30;;;;;;;;;;5064818;28;20210;-61
2024/01/31 07:11:24;;;;;;;3.63;2.43;;;;;;;;;;5060381;28;20197;-61
2024/01/31 07:13:51;;;;;;;2.80;2.17;;;;;;;;;;5058799;28;20218;-63
2024/01/31 07:16:20;;;;;;;2.87;2.47;;;;;;;;;;5061435;28;20231;-61
2024/01/31 07:18:47;;;;;;;3.20;2.00;;;;;;;;;;5059955;28;20210;-62
2024/01/31 07:21:24;;;;;;;2.10;1.90;;;;;;;;;;5067181;28;20260;-62
2024/01/31 07:23:52;;;;;;;2.67;2.20;;;;;;;;;;5057767;28;20273;-62
2024/01/31 07:26:26;;;;;;;4.60;2.50;;;;;;;;;;5063429;28;20202;-62
2024/01/31 07:28:54;;;;;;;2.17;2.00;;;;;;;;;;5060006;28;20252;-62
2024/01/31 07:31:23;;;;;;;3.20;2.90;;;;;;;;;;5063897;28;20199;-62
2024/01/31 07:33:51;;;;;;;4.97;3.03;;;;;;;;;;5058698;28;20203;-62
2024/01/31 07:36:18;;;;;;;3.30;3.00;;;;;;;;;;5062449;28;20194;-62
2024/01/31 07:38:46;;;;;;;5.17;3.50;;;;;;;;;;5056853;28;20207;-62
2024/01/31 07:41:13;;;;;;;3.87;2.90;;;;;;;;;;5056666;28;20211;-62
2024/01/31 07:43:41;;;;;;;3.80;3.47;;;;;;;;;;5061774;28;20324;-63
2024/01/31 07:46:09;;;;;;;3.30;3.00;;;;;;;;;;5064367;28;20195;-62
2024/01/31 07:48:39;;;;;;;4.00;3.20;;;;;;;;;;5059918;28;20205;-62
2024/01/31 07:51:07;;;;;;;3.53;3.10;;;;;;;;;;5061227;28;20218;-61
2024/01/31 07:53:34;;;;;;;4.40;2.80;;;;;;;;;;5062228;28;20211;-62
2024/01/31 07:56:03;;;;;;;3.17;2.83;;;;;;;;;;5064615;28;20206;-62
2024/01/31 07:58:31;;;;;;;2.60;2.23;;;;;;;;;;5063004;28;20199;-63
2024/01/31 08:00:58;;;;;;;3.30;3.00;;;;;;;;;;5062002;28;20266;-62
2024/01/31 08:03:25;;;;;;;2.80;2.30;;;;;;;;;;5044541;28;20250;-62
2024/01/31 08:05:54;;;;;;;2.40;2.20;;;;;;;;;;5044479;28;20200;-62
2024/01/31 08:08:21;;;;;;;2.70;2.07;;;;;;;;;;5041434;28;20195;-62
2024/01/31 08:10:49;;;;;;;2.53;1.80;;;;;;;;;;5047040;28;20207;-62
2024/01/31 08:13:16;;;;;;;2.97;1.83;;;;;;;;;;5041039;28;20287;-62
2024/01/31 08:15:43;;;;;;;3.00;2.13;;;;;;;;;;5043801;28;20212;-62
2024/01/31 08:18:11;;;;;;;3.00;2.30;;;;;;;;;;5046915;28;20206;-61
2024/01/31 08:20:38;;;;;;;2.83;2.27;;;;;;;;;;5046040;28;20199;-63
2024/01/31 08:23:07;;;;;;;2.93;2.60;;;;;;;;;;5041335;28;20212;-62
2024/01/31 08:25:35;;;;;;;2.87;2.57;;;;;;;;;;5039717;28;20287;-62
2024/01/31 08:28:03;;;;;;;6.50;2.57;;;;;;;;;;5046304;28;20211;-62
2024/01/31 08:30:30;;;;;;;3.27;2.37;;;;;;;;;;5043292;28;20201;-62
2024/01/31 08:32:57;;;;;;;2.50;2.23;;;;;;;;;;5042692;28;20196;-62
2024/01/31 08:35:25;;;;;;;3.97;2.20;;;;;;;;;;5043183;28;20204;-62
2024/01/31 08:37:54;;;;;;;3.30;2.20;;;;;;;;;;5049458;28;20226;-62
2024/01/31 08:40:23;;;;;;;4.27;2.60;;;;;;;;;;5046366;28;20235;-61
2024/01/31 08:42:50;;;;;;;3.10;2.53;;;;;;;;;;5042530;28;20212;-62
2024/01/31 08:45:18;;;;;;;4.20;2.73;;;;;;;;;;5037990;28;20197;-62
2024/01/31 08:47:45;;;;;;;4.90;2.47;;;;;;;;;;5052933;28;20286;-62
2024/01/31 08:50:12;;;;;;;2.50;2.00;;;;;;;;;;5038640;28;20205;-62
2024/01/31 08:52:40;;;;;;;2.30;1.97;;;;;;;;;;5044818;28;20196;-61
2024/01/31 08:55:07;;;;;;;4.27;2.53;;;;;;;;;;5039034;28;20208;-62
2024/01/31 08:57:36;;;;;;;2.40;2.10;;;;;;;;;;5047393;28;20200;-62
2024/01/31 09:00:04;;;;;;;2.00;1.77;;;;;;;;;;5042267;28;20264;-62
2024/01/31 09:02:31;;;;;;;4.40;2.40;;;;;;;;;;5047111;28;20222;-62
2024/01/31 09:04:59;;;;;;;2.53;2.10;;;;;;;;;;5044308;28;20199;-62
2024/01/31 09:07:26;;;;;;;4.03;1.70;;;;;;;;;;5042758;28;20207;-62
2024/01/31 09:09:53;;;;;;;3.10;2.00;;;;;;;;;;5040104;28;20303;-63
2024/01/31 09:12:20;;;;;;;3.47;1.60;;;;;;;;;;5045868;28;20197;-62
2024/01/31 09:14:49;;;;;;;3.17;1.70;;;;;;;;;;5045203;28;20300;-63
2024/01/31 09:17:16;;;;;;;5.47;3.13;;;;;;;;;;5043252;28;20323;-61
2024/01/31 09:19:43;;;;;;;5.50;2.23;;;;;;;;;;5034065;28;20312;-62
2024/01/31 09:22:11;;;;;;;2.10;1.20;;;;;;;;;;5037851;28;20204;-62
2024/01/31 09:24:39;;;;;;;2.77;1.50;;;;;;;;;;5041612;28;20196;-62
2024/01/31 09:27:07;;;;;;;2.23;1.30;;;;;;;;;;5043433;28;20206;-62
2024/01/31 09:29:34;;;;;;;1.83;1.53;;;;;;;;;;5047160;28;20563;-63
2024/01/31 09:32:03;;;;;;;2.57;1.47;;;;;;;;;;5041366;28;20195;-63
2024/01/31 09:34:32;;;;;;;1.97;1.30;;;;;;;;;;5040003;28;20204;-63
2024/01/31 09:36:59;;;;;;;3.00;1.60;;;;;;;;;;5043856;28;20200;-62
2024/01/31 09:39:27;;;;;;;3.73;1.60;;;;;;;;;;5040774;28;20203;-62
2024/01/31 09:41:54;;;;;;;2.10;1.60;;;;;;;;;;5039631;28;20220;-63
2024/01/31 09:44:22;;;;;;;3.13;1.77;;;;;;;;;;5042093;28;20203;-63
2024/01/31 09:46:51;;;;;;;3.77;1.43;;;;;;;;;;5041609;28;20204;-62
2024/01/31 09:49:20;;;;;;;4.97;1.60;;;;;;;;;;5041389;28;20204;-61
2024/01/31 09:51:47;;;;;;;2.80;1.67;;;;;;;;;;5041987;28;20199;-63
2024/01/31 09:54:15;;;;;;;2.60;1.13;;;;;;;;;;5040161;28;20291;-62
2024/01/31 09:56:42;;;;;;;2.13;1.50;;;;;;;;;;5049127;28;20206;-63
2024/01/31 09:59:10;;;;;;;3.97;1.60;;;;;;;;;;5049427;28;20214;-62
2024/01/31 10:01:39;;;;;;;3.97;1.80;;;;;;;;;;5045388;28;20224;-62
2024/01/31 10:04:06;;;;;;;3.37;1.93;;;;;;;;;;5042348;28;20203;-67
2024/01/31 10:06:35;;;;;;;6.43;2.30;;;;;;;;;;5046403;28;20199;-66
2024/01/31 10:09:03;;;;;;;2.83;1.70;;;;;;;;;;5042996;28;20204;-67
2024/01/31 10:11:31;;;;;;;3.07;1.70;;;;;;;;;;5045649;28;20207;-67
2024/01/31 10:13:58;;;;;;;1.97;1.40;;;;;;;;;;5042144;28;20199;-67
2024/01/31 10:16:26;;;;;;;2.47;1.50;;;;;;;;;;5042826;28;20237;-68
2024/01/31 10:18:55;;;;;;;7.13;4.30;;;;;;;;;;5039752;28;20208;-67
2024/01/31 10:21:23;;;;;;;3.50;1.90;;;;;;;;;;5039687;28;20200;-66
2024/01/31 10:23:58;;;;;;;2.87;1.50;;;;;;;;;;5042492;28;20195;-66
2024/01/31 10:26:26;;;;;;;4.23;1.83;;;;;;;;;;5043902;28;20217;-67
2024/01/31 10:28:54;;;;;;;3.23;1.70;;;;;;;;;;5045482;28;20250;-67
2024/01/31 10:31:21;;;;;;;1.63;1.50;;;;;;;;;;5047390;28;20206;-67
2024/01/31 10:33:49;;;;;;;3.20;1.73;;;;;;;;;;5037857;28;20196;-67
2024/01/31 10:36:16;;;;;;;2.43;1.43;;;;;;;;;;5040939;28;20200;-67
2024/01/31 10:38:44;;;;;;;2.17;1.50;;;;;;;;;;5043177;28;20663;-65
2024/01/31 10:41:15;;;;;;;4.87;1.60;;;;;;;;;;5041749;28;20199;-66
2024/01/31 10:43:43;;;;;;;3.97;1.77;;;;;;;;;;5039219;28;20250;-67
2024/01/31 10:46:11;;;;;;;1.93;1.60;;;;;;;;;;5038903;28;20196;-67
2024/01/31 10:48:38;;;;;;;2.57;1.70;;;;;;;;;;5040317;28;20242;-66
2024/01/31 10:51:07;;;;;;;3.83;1.60;;;;;;;;;;5038711;28;20291;-67
2024/01/31 10:53:35;;;;;;;2.10;1.40;;;;;;;;;;5038274;28;20204;-67
2024/01/31 10:56:04;;;;;;;1.90;1.70;;;;;;;;;;5037587;28;20211;-67
2024/01/31 10:58:33;;;;;;;1.60;1.50;;;;;;;;;;5037520;28;20206;-66
2024/01/31 11:01:03;;;;;;;1.93;1.37;;;;;;;;;;5039350;28;20296;-66
2024/01/31 11:03:30;;;;;;;2.03;1.50;;;;;;;;;;5035710;28;20216;-67
2024/01/31 11:05:58;;;;;;;1.57;1.47;;;;;;;;;;5043801;28;20200;-66
2024/01/31 11:08:27;;;;;;;2.63;1.50;;;;;;;;;;5035714;28;20200;-67
2024/01/31 11:10:54;;;;;;;5.33;2.03;;;;;;;;;;5039558;28;20200;-66
2024/01/31 11:13:22;;;;;;;2.00;1.60;;;;;;;;;;5038156;28;20202;-62
2024/01/31 11:15:51;;;;;;;2.43;1.47;;;;;;;;;;5041129;28;20206;-62
2024/01/31 11:18:18;;;;;;;1.73;1.60;;;;;;;;;;5034414;28;20192;-62
2024/01/31 11:20:49;;;;;;;6.37;3.20;;;;;;;;;;5042371;28;20231;-62
2024/01/31 11:23:17;;;;;;;2.83;1.60;;;;;;;;;;5040059;28;20218;-62
2024/01/31 11:25:45;;;;;;;1.40;1.00;;;;;;;;;;5042685;28;20230;-61
2024/01/31 11:28:12;;;;;;;2.10;1.27;;;;;;;;;;5041713;28;20208;-63
2024/01/31 11:30:40;;;;;;;3.23;1.37;;;;;;;;;;5039203;28;20275;-61
2024/01/31 11:33:09;;;;;;;2.30;1.23;;;;;;;;;;5044359;28;20195;-62
2024/01/31 11:35:37;;;;;;;2.83;1.20;;;;;;;;;;5044394;28;20208;-62
2024/01/31 11:38:06;;;;;;;3.27;1.40;;;;;;;;;;5045539;28;20204;-62
2024/01/31 11:40:33;;;;;;;1.93;1.50;;;;;;;;;;5048685;28;20253;-62
2024/01/31 11:43:01;;;;;;;2.37;1.20;;;;;;;;;;5035964;28;20223;-61
2024/01/31 11:45:28;;;;;;;3.50;1.07;;;;;;;;;;5042273;28;20199;-62
2024/01/31 11:47:56;;;;;;;3.17;1.80;;;;;;;;;;5044982;28;20192;-61
2024/01/31 11:50:28;;;;;;;3.27;1.60;;;;;;;;;;5041072;28;20204;-62
2024/01/31 11:52:56;;;;;;;2.10;1.23;;;;;;;;;;5036160;28;20196;-61
2024/01/31 11:55:23;;;;;;;1.70;1.43;;;;;;;;;;5043178;28;20196;-62
2024/01/31 11:57:51;;;;;;;2.37;1.40;;;;;;;;;;5043682;28;20294;-62
2024/01/31 12:00:19;;;;;;;1.27;1.10;;;;;;;;;;5044775;28;20209;-62
2024/01/31 12:02:47;;;;;;;3.70;1.30;;;;;;;;;;5039201;28;20236;-62
2024/01/31 12:05:15;;;;;;;3.10;1.27;;;;;;;;;;5040735;28;20234;-63
2024/01/31 12:07:44;;;;;;;3.63;1.60;;;;;;;;;;5037135;28;20265;-63
2024/01/31 12:10:11;;;;;;;2.57;1.40;;;;;;;;;;5046006;28;20198;-62
2024/01/31 12:12:41;;;;;;;2.50;1.60;;;;;;;;;;5038353;28;20196;-63
2024/01/31 12:15:09;;;;;;;1.40;1.30;;;;;;;;;;5042513;28;20278;-63
2024/01/31 12:17:36;;;;;;;2.87;1.80;;;;;;;;;;5046717;28;20242;-62
2024/01/31 12:20:04;;;;;;;2.63;1.30;;;;;;;;;;5044149;28;20207;-62
2024/01/31 12:22:32;;;;;;;1.90;1.57;;;;;;;;;;5042051;28;20239;-61
2024/01/31 12:25:01;;;;;;;2.30;1.40;;;;;;;;;;5044996;28;20206;-62
2024/01/31 12:27:28;;;;;;;2.67;1.53;;;;;;;;;;5046695;28;20211;-62
2024/01/31 12:29:56;;;;;;;1.60;1.20;;;;;;;;;;5048971;28;20271;-62
2024/01/31 12:32:24;;;;;;;3.47;1.40;;;;;;;;;;5040132;28;20207;-62
2024/01/31 12:34:51;;;;;;;1.37;1.27;;;;;;;;;;5040885;28;20234;-62
2024/01/31 12:37:18;;;;;;;2.97;1.30;;;;;;;;;;5044268;28;20227;-63
2024/01/31 12:39:46;;;;;;;4.07;1.40;;;;;;;;;;5040417;28;20200;-62
2024/01/31 12:42:14;;;;;;;1.03;1.03;;;;;;;;;;5039529;28;20200;-61
2024/01/31 12:44:42;;;;;;;1.47;1.33;;;;;;;;;;5034152;28;20211;-63
2024/01/31 12:47:10;;;;;;;3.50;1.47;;;;;;;;;;5049238;28;20219;-62
2024/01/31 12:49:39;;;;;;;2.00;1.40;;;;;;;;;;5062313;28;20225;-62
2024/01/31 12:52:06;;;;;;;2.07;1.20;;;;;;;;;;5060153;28;20298;-63
2024/01/31 12:54:33;;;;;;;2.23;1.30;;;;;;;;;;5058781;28;20290;-62
2024/01/31 12:57:01;;;;;;;4.17;1.43;;;;;;;;;;5059853;28;20322;-63
2024/01/31 12:59:30;;;;;;;2.63;1.50;;;;;;;;;;5060780;28;20229;-63
2024/01/31 13:01:57;;;;;;;3.43;1.10;;;;;;;;;;5063905;28;20199;-63
2024/01/31 13:04:24;;;;;;;2.60;1.30;;;;;;;;;;5064785;28;20207;-61
2024/01/31 13:06:52;;;;;;;2.63;1.30;;;;;;;;;;5062163;28;20199;-64
2024/01/31 13:09:19;;;;;;;1.80;1.40;;;;;;;;;;5058406;28;20199;-62
2024/01/31 13:11:46;;;;;;;2.17;1.47;;;;;;;;;;5057965;28;20218;-63
2024/01/31 13:14:13;;;;;;;2.43;1.90;;;;;;;;;;5063586;28;20289;-62
2024/01/31 13:16:42;;;;;;;1.50;1.40;;;;;;;;;;5065164;28;20235;-61
2024/01/31 13:19:09;;;;;;;3.73;1.60;;;;;;;;;;5065135;28;20199;-62
2024/01/31 13:21:37;;;;;;;1.80;1.40;;;;;;;;;;5063484;28;20198;-64
2024/01/31 13:24:05;;;;;;;2.73;1.47;;;;;;;;;;5058680;28;20222;-62
2024/01/31 13:26:35;;;;;;;2.17;1.33;;;;;;;;;;5067024;28;20278;-62
2024/01/31 13:29:03;;;;;;;2.93;1.63;;;;;;;;;;5056802;28;20195;-62
2024/01/31 13:31:31;;;;;;;3.73;1.70;;;;;;;;;;5057162;28;20203;-63
2024/01/31 13:33:59;;;;;;;3.60;1.60;;;;;;;;;;5066547;28;20199;-62
2024/01/31 13:36:27;;;;;;;2.50;1.43;;;;;;;;;;5062407;28;20318;-62
2024/01/31 13:38:54;;;;;;;2.90;1.73;;;;;;;;;;5068413;28;20282;-62
2024/01/31 13:41:22;;;;;;;2.40;1.80;;;;;;;;;;5064924;28;20298;-62
2024/01/31 13:43:50;;;;;;;3.00;1.53;;;;;;;;;;5059530;28;20221;-63
2024/01/31 13:46:17;;;;;;;1.90;1.30;;;;;;;;;;5062775;28;20207;-61
2024/01/31 13:48:44;;;;;;;2.87;1.20;;;;;;;;;;5062882;28;20206;-63
2024/01/31 13:51:14;;;;;;;2.17;1.37;;;;;;;;;;5070082;28;20205;-62
2024/01/31 13:53:41;;;;;;;1.83;1.30;;;;;;;;;;5069660;28;20199;-62
2024/01/31 13:56:09;;;;;;;4.23;1.40;;;;;;;;;;5054738;28;20199;-62
2024/01/31 13:58:37;;;;;;;2.70;1.50;;;;;;;;;;5063724;28;20199;-62
2024/01/31 14:01:04;;;;;;;2.97;1.60;;;;;;;;;;5064792;28;20209;-62
2024/01/31 14:03:31;;;;;;;2.20;1.20;;;;;;;;;;5063590;28;20225;-62
2024/01/31 14:05:58;;;;;;;3.77;1.43;;;;;;;;;;5066098;28;20218;-62
2024/01/31 14:08:27;;;;;;;2.30;1.30;;;;;;;;;;5064537;28;20200;-62
2024/01/31 14:10:54;;;;;;;1.60;1.50;;;;;;;;;;5066411;28;20289;-62
2024/01/31 14:13:21;;;;;;;2.30;1.40;;;;;;;;;;5067186;28;20298;-62
2024/01/31 14:15:48;;;;;;;2.37;1.40;;;;;;;;;;5063085;28;20302;-62
2024/01/31 14:18:15;;;;;;;2.60;1.43;;;;;;;;;;5064071;28;20229;-62
2024/01/31 14:20:42;;;;;;;1.90;1.30;;;;;;;;;;5061236;28;20199;-63
2024/01/31 14:23:10;;;;;;;2.90;1.20;;;;;;;;;;5059006;28;20268;-61
2024/01/31 14:25:38;;;;;;;2.73;1.20;;;;;;;;;;5057507;28;20207;-62
2024/01/31 14:28:05;;;;;;;2.57;1.50;;;;;;;;;;5054081;28;20298;-62
2024/01/31 14:30:33;;;;;;;1.80;1.23;;;;;;;;;;5062087;28;20207;-62
2024/01/31 14:33:00;;;;;;;1.50;1.40;;;;;;;;;;5055551;28;20200;-61
2024/01/31 14:35:27;;;;;;;2.00;1.40;;;;;;;;;;5060251;28;20208;-62
2024/01/31 14:37:54;;;;;;;2.30;1.40;;;;;;;;;;5058869;28;20285;-62
2024/01/31 14:40:21;;;;;;;2.83;1.20;;;;;;;;;;5067626;28;20203;-62
2024/01/31 14:42:50;;;;;;;3.20;1.60;;;;;;;;;;5063412;28;20241;-63
2024/01/31 14:45:17;;;;;;;2.70;1.70;;;;;;;;;;5064119;28;20206;-62